Farmington ASC

2020-08-10 13:40:00

  • imperial
Date Time Air Temperature Relative Humidity Dewpoint Windchill Heat Index Wind Speed Wind Dir. Rain Solar Radiation Soil Temperature
2m 2m 3m 3m 10cm
US/Mountain F % F F F MPH deg in MJ/m^2 F
max avg avg
2020-08-09 13:50:00 85.9 23.6 44.5 85.9 85.9 2.8 7.4 3.9 272.5 309.6 0.00 0.9320000 75.7
2020-08-09 13:55:00 85.3 27.4 48.0 85.3 85.3 5.3 9.2 4.9 276.2 289.3 0.00 0.9330000 75.9
2020-08-09 14:00:00 83.8 21.2 39.8 83.8 83.8 8.3 9.7 6.6 29.1 307.0 0.00 0.9230000 76.2
2020-08-09 14:05:00 85.4 25.8 46.4 85.4 85.4 4.0 8.3 4.0 286.7 304.5 0.00 0.1340000 76.3
2020-08-09 14:10:00 84.2 19.6 38.3 84.2 84.2 2.1 8.0 4.3 254.2 304.5 0.00 0.9980000 76.5
2020-08-09 14:15:00 85.9 23.4 44.2 85.9 85.9 4.7 5.1 3.2 253.2 50.3 0.00 0.1580000 76.7
2020-08-09 14:20:00 83.0 31.5 49.7 83.0 83.0 6.7 12.4 6.0 287.0 262.2 0.00 0.4190000 76.9
2020-08-09 14:25:00 86.1 14.5 32.2 86.1 86.1 5.6 9.2 6.6 170.6 191.5 0.00 0.9150000 77.0
2020-08-09 14:30:00 87.4 25.9 48.2 87.4 87.4 3.1 5.1 2.6 45.7 154.5 0.00 0.9140000 77.1
2020-08-09 14:35:00 86.9 22.9 44.5 86.9 86.9 6.0 6.9 3.7 330.6 301.9 0.00 0.9240000 77.1
2020-08-09 14:40:00 85.2 24.8 45.2 85.2 85.2 3.7 11.5 5.4 261.7 275.3 0.00 0.9260000 77.2
2020-08-09 14:45:00 84.5 30.6 50.2 84.5 84.5 7.2 9.4 5.1 305.1 267.8 0.00 0.9280000 77.3
2020-08-09 14:50:00 84.3 14.6 30.9 84.3 84.3 5.5 6.9 5.2 219.0 257.3 0.00 0.4590000 77.4
2020-08-09 14:55:00 87.8 25.2 47.8 87.8 87.8 1.9 7.6 4.9 213.0 208.6 0.00 0.9260000 77.5
2020-08-09 15:00:00 88.7 26.5 49.9 88.7 88.7 2.2 5.1 2.7 276.9 226.8 0.00 0.9250000 77.6
2020-08-09 15:05:00 85.7 23.7 44.4 85.7 85.7 3.8 7.8 4.1 280.6 294.1 0.00 0.2090000 77.7
2020-08-09 15:10:00 85.6 22.5 43.0 85.6 85.6 4.0 9.6 6.5 334.8 302.6 0.00 0.9340000 77.8
2020-08-09 15:15:00 86.6 16.0 35.1 86.6 86.6 4.4 7.4 4.8 267.9 314.3 0.00 0.2240000 77.8
2020-08-09 15:20:00 85.4 16.5 34.9 85.4 85.4 5.5 8.1 4.1 301.8 277.7 0.00 0.9120000 77.9
2020-08-09 15:25:00 85.7 17.3 36.2 85.7 85.7 6.7 9.6 6.1 266.1 263.2 0.00 0.1930000 78.0
2020-08-09 15:30:00 86.2 23.3 44.3 86.2 86.2 5.8 14.4 8.4 222.4 248.7 0.00 0.9200000 78.0
2020-08-09 15:35:00 88.1 15.5 35.4 88.1 88.1 12.4 12.4 9.1 251.7 241.9 0.00 0.2210000 78.1
2020-08-09 15:40:00 88.3 17.1 38.1 88.3 88.3 6.0 13.5 5.5 268.1 250.2 0.00 0.9270000 78.2
2020-08-09 15:45:00 88.5 16.4 37.2 88.5 88.5 6.0 8.1 4.9 266.9 275.0 0.00 0.9470000 78.2
2020-08-09 15:50:00 87.3 16.6 36.6 87.3 87.3 7.4 10.1 6.6 205.7 247.9 0.00 0.2330000 78.2
2020-08-09 15:55:00 86.8 16.8 36.5 86.8 86.8 4.0 7.8 5.9 263.7 230.0 0.00 0.6060000 78.3
2020-08-09 16:00:00 88.4 12.3 29.9 88.4 88.4 7.1 7.1 5.2 185.1 219.6 0.00 0.4650000 78.3
2020-08-09 16:05:00 87.5 15.7 35.4 87.5 87.5 4.6 7.4 5.3 227.6 216.8 0.00 0.2090000 78.3
2020-08-09 16:10:00 86.4 14.6 32.6 86.4 86.4 6.2 10.5 6.2 262.4 273.8 0.00 0.2470000 78.3
2020-08-09 16:15:00 87.0 16.4 36.0 87.0 87.0 6.2 10.5 6.9 238.3 266.6 0.00 0.5450000 78.3
2020-08-09 16:20:00 87.4 11.4 27.2 87.4 87.4 4.0 11.7 7.8 226.6 261.8 0.00 0.7870000 78.3
2020-08-09 16:25:00 89.7 18.4 41.2 89.7 89.7 6.2 6.2 3.7 220.6 220.5 0.00 0.7610000 78.2
2020-08-09 16:30:00 88.8 15.1 35.4 88.8 88.8 9.9 11.5 8.1 241.2 222.6 0.00 0.7460000 78.2
2020-08-09 16:35:00 88.6 17.9 39.5 88.6 88.6 3.1 9.7 6.0 204.3 250.1 0.00 0.1500000 78.2
2020-08-09 16:40:00 87.2 15.8 35.2 87.2 87.2 4.9 10.5 6.1 251.2 250.9 0.00 0.1390000 78.1
2020-08-09 16:45:00 88.0 15.6 35.6 88.0 88.0 8.5 19.0 7.5 232.2 259.7 0.00 0.6840000 78.1
2020-08-09 16:50:00 89.0 13.0 31.7 89.0 89.0 7.8 9.7 6.3 254.5 241.3 0.00 0.6720000 78.0
2020-08-09 16:55:00 89.8 14.5 35.1 89.8 89.8 6.5 8.7 5.4 2.3 265.7 0.00 0.6430000 78.0
2020-08-09 17:00:00 89.6 10.6 27.2 89.6 89.6 5.1 10.5 6.0 284.8 290.4 0.00 0.6260000 77.9
2020-08-09 17:05:00 90.0 11.8 30.1 90.0 90.0 7.1 9.6 4.6 298.1 299.3 0.00 0.6080000 77.9
2020-08-09 17:10:00 89.7 13.0 32.4 89.7 89.7 5.6 7.2 4.5 261.9 268.2 0.00 0.1590000 77.8
2020-08-09 17:15:00 87.8 10.0 24.5 87.8 87.8 5.1 8.0 5.0 253.2 267.4 0.00 0.6100000 77.8
2020-08-09 17:20:00 90.0 14.1 34.6 90.0 90.0 2.6 5.1 3.6 184.4 229.6 0.00 0.5990000 77.7
2020-08-09 17:25:00 90.8 11.7 30.6 90.8 90.8 3.7 4.6 2.7 178.6 255.1 0.00 0.6000000 77.7
2020-08-09 17:30:00 90.0 10.4 27.0 90.0 90.0 3.3 6.9 5.2 230.4 229.2 0.00 0.1580000 77.6
2020-08-09 17:35:00 89.8 19.0 42.0 89.8 89.8 3.7 4.0 2.8 291.9 231.8 0.00 0.5600000 77.6
2020-08-09 17:40:00 89.5 10.5 27.0 89.5 89.5 10.1 10.6 4.9 242.7 261.3 0.00 0.5290000 77.5
2020-08-09 17:45:00 88.9 11.5 28.6 88.9 88.9 7.2 10.1 6.6 259.7 264.8 0.00 0.5040000 77.4
2020-08-09 17:50:00 89.5 11.4 28.8 89.5 89.5 9.2 12.4 7.7 273.4 251.3 0.00 0.4710000 77.4
2020-08-09 17:55:00 89.5 11.2 28.5 89.5 89.5 6.9 11.9 7.3 256.9 276.9 0.00 0.4410000 77.4
2020-08-09 18:00:00 89.0 9.9 25.1 89.0 89.0 17.6 17.6 8.3 291.8 274.1 0.00 0.4160000 77.3
2020-08-09 18:05:00 88.7 12.5 30.7 88.7 88.7 8.3 12.6 9.6 222.8 264.1 0.00 0.3970000 77.2
2020-08-09 18:10:00 88.7 10.6 26.6 88.7 88.7 10.5 10.5 7.8 265.4 255.2 0.00 0.3730000 77.2
2020-08-09 18:15:00 88.5 13.1 31.6 88.5 88.5 4.9 9.9 6.3 258.2 268.5 0.00 0.3500000 77.1
2020-08-09 18:20:00 88.0 12.6 30.3 88.0 88.0 6.3 10.3 7.5 255.9 265.1 0.00 0.3340000 77.0
2020-08-09 18:25:00 88.6 10.2 25.4 88.6 88.6 9.2 11.5 7.1 252.5 275.6 0.00 0.3110000 77.0
2020-08-09 18:30:00 88.6 10.8 27.0 88.6 88.6 5.1 8.5 6.5 263.5 277.7 0.00 0.2910000 76.9
2020-08-09 18:35:00 88.2 12.2 29.6 88.2 88.2 7.8 10.8 7.7 259.6 253.7 0.00 0.2720000 76.9
2020-08-09 18:40:00 88.6 11.7 28.8 88.6 88.6 3.7 8.7 4.1 305.4 285.4 0.00 0.2560000 76.8
2020-08-09 18:45:00 88.3 9.6 23.8 88.3 88.3 8.5 11.3 7.6 286.2 289.3 0.00 0.2410000 76.7
2020-08-09 18:50:00 88.4 10.4 25.8 88.4 88.4 8.5 10.1 7.2 275.2 287.3 0.00 0.2240000 76.6
2020-08-09 18:55:00 88.1 10.4 25.6 88.1 88.1 9.9 10.6 6.8 300.9 286.8 0.00 0.2070000 76.5
2020-08-09 19:00:00 87.6 11.3 27.3 87.6 87.6 5.3 11.9 6.7 252.2 283.3 0.00 0.1920000 76.4
2020-08-09 19:05:00 87.5 12.4 29.4 87.5 87.5 5.5 9.4 5.8 290.4 284.1 0.00 0.1770000 76.4
2020-08-09 19:10:00 87.4 11.6 27.8 87.4 87.4 5.6 7.8 5.6 305.0 294.7 0.00 0.1630000 76.3
2020-08-09 19:15:00 87.4 10.4 25.2 87.4 87.4 4.6 6.3 4.4 249.3 279.9 0.00 0.1460000 76.2
2020-08-09 19:20:00 87.8 12.4 29.8 87.8 87.8 1.7 3.5 2.4 328.8 307.3 0.00 0.1300000 76.1
2020-08-09 19:25:00 87.2 12.5 29.4 87.2 87.2 3.8 6.7 3.6 268.7 296.5 0.00 0.1140000 76.0
2020-08-09 19:30:00 86.7 12.9 29.9 86.7 86.7 2.8 6.2 3.4 0.1 296.1 0.00 0.0860000 75.9
2020-08-09 19:35:00 85.5 11.1 25.2 85.5 85.5 4.6 5.6 3.1 310.5 334.5 0.00 0.0420000 75.8
2020-08-09 19:40:00 85.5 11.7 26.4 85.5 85.5 0.0 5.1 1.8 302.1 307.3 0.00 0.0510000 75.7
2020-08-09 19:45:00 85.4 13.6 30.1 85.4 85.4 2.1 2.8 0.9 325.9 301.1 0.00 0.0280000 75.6
2020-08-09 19:50:00 83.9 11.7 25.3 83.9 83.9 4.0 5.6 3.1 272.4 315.2 0.00 0.0170000 75.5
2020-08-09 19:55:00 83.5 11.6 24.7 83.5 83.5 1.7 4.9 3.0 297.8 321.7 0.00 0.0090000 75.4
2020-08-09 20:00:00 83.6 12.6 26.7 83.6 83.6 1.5 2.8 1.9 320.0 311.1 0.00 0.0110000 75.3
2020-08-09 20:05:00 82.3 12.0 24.6 82.3 82.3 2.4 2.6 1.6 44.2 319.9 0.00 0.0050000 75.2
2020-08-09 20:10:00 81.9 12.4 25.0 81.9 81.9 2.2 3.5 2.1 246.9 313.8 0.00 0.0040000 75.0
2020-08-09 20:15:00 80.8 13.5 26.3 80.8 80.8 1.0 2.6 1.5 316.5 324.3 0.00 0.0030000 74.9
2020-08-09 20:20:00 80.0 12.7 24.1 80.0 80.0 2.2 3.0 1.8 9.0 330.1 0.00 0.0010000 74.8
2020-08-09 20:25:00 79.9 12.8 24.2 79.9 79.9 0.0 2.2 1.0 310.7 334.4 0.00 0.0010000 74.6
2020-08-09 20:30:00 78.7 14.4 26.2 78.7 78.7 0.0 0.0 0.0 311.0 0.0 0.00 0.0000000 74.5
2020-08-09 20:35:00 77.5 19.5 32.6 77.5 77.5 1.9 2.6 1.6 163.1 165.7 0.00 0.0000000 74.4
2020-08-09 20:40:00 76.0 17.4 28.5 76.0 76.0 0.0 2.1 1.0 34.1 131.2 0.00 0.0000000 74.3
2020-08-09 20:45:00 75.0 16.9 27.1 75.0 75.0 1.5 1.7 1.0 93.3 81.3 0.00 0.0000000 74.1
2020-08-09 20:50:00 74.3 16.5 25.9 74.3 74.3 2.6 3.0 2.0 96.0 95.5 0.00 0.0000000 74.0
2020-08-09 20:55:00 72.3 17.1 25.2 72.3 72.3 2.6 2.8 2.1 97.8 89.9 0.00 0.0000000 73.9
2020-08-09 21:00:00 71.5 18.0 25.7 71.5 71.5 2.2 2.8 2.2 88.9 93.2 0.00 0.0000000 73.8
2020-08-09 21:05:00 71.0 17.7 24.9 71.0 71.0 2.4 3.3 2.6 101.1 91.4 0.00 0.0000000 73.6
2020-08-09 21:10:00 69.3 18.9 25.2 69.3 69.3 1.3 2.1 1.7 75.6 80.1 0.00 0.0000000 73.5
2020-08-09 21:15:00 67.9 19.6 24.9 67.9 67.9 1.3 2.1 1.7 80.0 78.3 0.00 0.0000000 73.3
2020-08-09 21:20:00 67.6 22.4 27.8 67.6 67.6 2.1 2.2 1.5 124.1 97.7 0.00 0.0000000 73.2
2020-08-09 21:25:00 68.3 19.2 24.7 68.3 68.3 2.1 2.6 2.1 97.8 86.8 0.00 0.0000000 73.1
2020-08-09 21:30:00 68.2 19.9 25.4 68.2 68.2 2.1 2.2 1.6 99.0 90.5 0.00 0.0000000 73.0
2020-08-09 21:35:00 67.8 20.9 26.3 67.8 67.8 2.2 3.1 2.4 78.9 85.6 0.00 0.0000000 72.8
2020-08-09 21:40:00 67.3 20.7 25.7 67.3 67.3 2.2 3.7 2.9 74.4 67.0 0.00 0.0000000 72.7
2020-08-09 21:45:00 67.6 20.6 25.7 67.6 67.6 2.6 3.1 2.4 99.4 83.5 0.00 0.0000000 72.6
2020-08-09 21:50:00 67.5 21.4 26.6 67.5 67.5 2.2 3.0 2.3 85.5 90.2 0.00 0.0000000 72.5
2020-08-09 21:55:00 67.1 20.2 24.9 67.1 67.1 2.6 3.8 2.6 55.3 78.3 0.00 0.0000000 72.3
2020-08-09 22:00:00 67.1 20.7 25.5 67.1 67.1 1.9 3.5 2.5 119.4 67.3 0.00 0.0000000 72.2
2020-08-09 22:05:00 67.2 21.4 26.4 67.2 67.2 1.3 3.0 1.8 52.1 68.1 0.00 0.0000000 72.1
2020-08-09 22:10:00 67.5 21.0 26.2 67.5 67.5 2.2 2.2 1.9 75.1 67.4 0.00 0.0000000 72.0
2020-08-09 22:15:00 67.8 19.7 24.9 67.8 67.8 3.3 3.3 2.3 59.2 65.3 0.00 0.0000000 71.9
2020-08-09 22:20:00 67.6 20.6 25.8 67.6 67.6 1.7 3.0 1.9 89.2 68.3 0.00 0.0000000 71.8
2020-08-09 22:25:00 67.1 20.9 25.8 67.1 67.1 2.2 3.0 1.9 54.0 69.0 0.00 0.0000000 71.7
2020-08-09 22:30:00 67.3 20.6 25.5 67.3 67.3 2.2 2.8 2.0 115.7 73.3 0.00 0.0000000 71.6
2020-08-09 22:35:00 67.5 22.1 27.4 67.5 67.5 1.3 2.2 1.6 77.8 89.2 0.00 0.0000000 71.5
2020-08-09 22:40:00 67.7 22.4 27.9 67.7 67.7 0.8 1.9 1.3 65.5 77.8 0.00 0.0000000 71.4
2020-08-09 22:45:00 67.2 26.2 31.3 67.2 67.2 5.1 5.5 2.2 171.0 181.8 0.00 0.0000000 71.4
2020-08-09 22:50:00 69.6 24.5 31.7 69.6 69.6 1.5 6.9 4.8 106.0 148.1 0.00 0.0000000 71.3
2020-08-09 22:55:00 69.2 23.4 30.2 69.2 69.2 1.9 2.6 1.6 53.8 64.2 0.00 0.0000000 71.2
2020-08-09 23:00:00 69.4 23.3 30.3 69.4 69.4 1.9 2.4 1.7 92.5 69.7 0.00 0.0000000 71.2
2020-08-09 23:05:00 69.5 23.3 30.3 69.5 69.5 2.1 3.7 2.5 44.5 67.2 0.00 0.0000000 71.1
2020-08-09 23:10:00 69.0 23.2 29.9 69.0 69.0 2.2 2.4 1.8 110.8 80.0 0.00 0.0000000 71.0
2020-08-09 23:15:00 69.0 25.3 32.0 69.0 69.0 1.3 3.5 2.5 115.9 114.1 0.00 0.0000000 70.9
2020-08-09 23:20:00 68.4 24.1 30.3 68.4 68.4 2.1 2.1 1.1 111.4 87.6 0.00 0.0000000 70.9
2020-08-09 23:25:00 69.5 22.7 29.8 69.5 69.5 1.3 3.5 2.3 103.8 79.3 0.00 0.0000000 70.8
2020-08-09 23:30:00 69.6 21.7 28.7 69.6 69.6 1.9 3.3 2.0 58.8 60.3 0.00 0.0000000 70.7
2020-08-09 23:35:00 70.0 20.8 28.0 70.0 70.0 2.2 3.0 2.1 70.3 59.8 0.00 0.0000000 70.7
2020-08-09 23:40:00 69.9 20.4 27.5 69.9 69.9 2.4 2.6 1.9 67.5 73.7 0.00 0.0000000 70.6
2020-08-09 23:45:00 70.1 20.2 27.4 70.1 70.1 2.1 3.1 2.4 57.8 61.3 0.00 0.0000000 70.6
2020-08-09 23:50:00 70.5 20.0 27.5 70.5 70.5 2.2 3.0 2.0 48.5 66.0 0.00 0.0000000 70.6
2020-08-09 23:55:00 71.0 19.5 27.2 71.0 71.0 2.1 3.1 2.5 66.9 54.5 0.00 0.0000000 70.5
2020-08-10 00:00:00 71.0 20.3 28.3 71.0 71.0 1.0 2.6 1.7 57.8 82.1 0.00 0.0000000 70.5
2020-08-10 00:05:00 70.8 21.1 29.0 70.8 70.8 2.2 2.8 1.8 119.5 96.5 0.00 0.0000000 70.4
2020-08-10 00:10:00 70.3 21.7 29.2 70.3 70.3 1.3 3.0 2.0 31.7 74.4 0.00 0.0000000 70.4
2020-08-10 00:15:00 70.6 20.5 28.2 70.6 70.6 1.7 2.2 1.6 71.2 65.3 0.00 0.0000000 70.4
2020-08-10 00:20:00 70.5 20.9 28.6 70.5 70.5 1.9 1.9 1.4 65.6 56.6 0.00 0.0000000 70.4
2020-08-10 00:25:00 71.3 20.1 28.2 71.3 71.3 2.4 3.7 2.7 55.8 66.4 0.00 0.0000000 70.3
2020-08-10 00:30:00 70.8 22.7 30.9 70.8 70.8 1.7 2.6 1.9 58.1 55.6 0.00 0.0000000 70.3
2020-08-10 00:35:00 71.2 22.2 30.6 71.2 71.2 2.4 2.8 2.1 46.2 47.3 0.00 0.0000000 70.2
2020-08-10 00:40:00 73.7 20.9 31.2 73.7 73.7 1.5 3.1 2.0 294.2 39.2 0.00 0.0000000 70.2
2020-08-10 00:45:00 72.1 25.6 35.0 72.1 72.1 1.3 2.4 1.3 110.6 172.8 0.00 0.0000000 70.1
2020-08-10 00:50:00 69.8 25.2 32.6 69.8 69.8 9.7 9.7 3.8 183.6 183.9 0.00 0.0000000 70.1
2020-08-10 00:55:00 69.7 26.6 33.8 69.7 69.7 7.6 8.8 5.6 175.1 170.8 0.00 0.0000000 70.1
2020-08-10 01:00:00 70.2 25.3 33.0 70.2 70.2 3.8 10.1 6.0 204.4 189.8 0.00 0.0000000 70.0
2020-08-10 01:05:00 71.1 25.6 34.0 71.1 71.1 1.5 3.3 2.0 178.9 179.9 0.00 0.0000000 70.0
2020-08-10 01:10:00 71.4 23.9 32.6 71.4 71.4 1.0 1.2 0.3 138.0 134.4 0.00 0.0000000 69.9
2020-08-10 01:15:00 71.3 26.0 34.7 71.3 71.3 2.1 3.7 2.3 117.2 121.0 0.00 0.0000000 69.9
2020-08-10 01:20:00 70.6 26.2 34.3 70.6 70.6 2.1 3.0 2.3 82.2 88.1 0.00 0.0000000 69.8
2020-08-10 01:25:00 69.8 26.3 33.7 69.8 69.8 1.9 2.6 2.0 39.1 59.2 0.00 0.0000000 69.8
2020-08-10 01:30:00 69.7 25.9 33.2 69.7 69.7 2.4 3.0 2.3 66.2 59.3 0.00 0.0000000 69.7
2020-08-10 01:35:00 70.0 26.0 33.5 70.0 70.0 1.3 3.1 2.3 51.9 45.7 0.00 0.0000000 69.7
2020-08-10 01:40:00 69.9 25.9 33.4 69.9 69.9 1.3 2.4 1.8 63.4 49.4 0.00 0.0000000 69.7
2020-08-10 01:45:00 69.5 24.9 32.0 69.5 69.5 2.8 3.1 2.4 59.9 68.5 0.00 0.0000000 69.6
2020-08-10 01:50:00 68.6 25.3 31.7 68.6 68.6 3.5 3.7 3.2 65.1 71.8 0.00 0.0000000 69.6
2020-08-10 01:55:00 67.4 27.1 32.3 67.4 67.4 1.2 3.7 2.4 82.0 76.2 0.00 0.0000000 69.5
2020-08-10 02:00:00 66.4 28.3 32.5 66.4 66.4 1.5 2.4 1.6 49.7 73.0 0.00 0.0000000 69.5
2020-08-10 02:05:00 67.5 30.4 35.3 67.5 67.5 1.2 2.6 1.8 285.7 343.3 0.00 0.0000000 69.5
2020-08-10 02:10:00 68.0 26.6 32.4 68.0 68.0 1.5 1.7 1.0 71.4 81.8 0.00 0.0000000 69.4
2020-08-10 02:15:00 68.1 26.6 32.4 68.1 68.1 1.9 2.6 2.0 92.8 50.5 0.00 0.0000000 69.4
2020-08-10 02:20:00 67.4 25.1 30.4 67.4 67.4 1.5 1.7 1.3 92.0 87.2 0.00 0.0000000 69.3
2020-08-10 02:25:00 66.8 26.7 31.5 66.8 66.8 1.3 2.2 1.7 113.1 145.8 0.00 0.0000000 69.3
2020-08-10 02:30:00 66.5 28.1 32.4 66.5 66.5 1.3 1.3 0.5 136.3 91.9 0.00 0.0000000 69.2
2020-08-10 02:35:00 64.9 29.4 32.2 64.9 64.9 2.1 3.3 2.5 142.9 152.8 0.00 0.0000000 69.2
2020-08-10 02:40:00 65.2 28.0 31.2 65.2 65.2 1.7 2.1 1.4 39.8 91.1 0.00 0.0000000 69.1
2020-08-10 02:45:00 65.4 25.6 29.2 65.4 65.4 1.2 2.1 1.3 63.1 66.0 0.00 0.0000000 69.1
2020-08-10 02:50:00 66.1 25.1 29.3 66.1 66.1 1.0 1.5 1.2 51.5 79.0 0.00 0.0000000 69.0
2020-08-10 02:55:00 66.2 24.6 28.9 66.2 66.2 0.0 1.5 0.7 97.3 57.7 0.00 0.0000000 69.0
2020-08-10 03:00:00 66.5 24.9 29.4 66.5 66.5 2.1 2.1 1.5 88.3 100.5 0.00 0.0000000 68.9
2020-08-10 03:05:00 66.4 27.2 31.6 66.4 66.4 2.1 3.1 2.2 34.8 57.5 0.00 0.0000000 68.9
2020-08-10 03:10:00 66.3 25.0 29.4 66.3 66.3 2.2 2.8 1.8 22.2 35.5 0.00 0.0000000 68.8
2020-08-10 03:15:00 66.6 25.5 30.1 66.6 66.6 1.7 2.8 1.5 21.4 47.9 0.00 0.0000000 68.8
2020-08-10 03:20:00 66.6 26.3 30.9 66.6 66.6 0.0 3.5 1.4 77.8 31.2 0.00 0.0000000 68.8
2020-08-10 03:25:00 66.0 26.7 30.8 66.0 66.0 1.9 2.1 0.9 27.8 50.3 0.00 0.0000000 68.7
2020-08-10 03:30:00 66.0 26.9 30.9 66.0 66.0 1.3 1.9 1.0 109.8 67.9 0.00 0.0000000 68.6
2020-08-10 03:35:00 65.7 28.4 32.0 65.7 65.7 1.7 1.7 0.7 14.6 88.7 0.00 0.0000000 68.6
2020-08-10 03:40:00 65.2 28.6 31.8 65.2 65.2 1.0 1.9 1.3 5.3 25.7 0.00 0.0000000 68.5
2020-08-10 03:45:00 64.4 28.9 31.4 64.4 64.4 1.7 2.1 0.8 44.8 69.2 0.00 0.0000000 68.5
2020-08-10 03:50:00 64.7 29.1 31.8 64.7 64.7 1.0 1.7 0.9 242.1 339.9 0.00 0.0000000 68.5
2020-08-10 03:55:00 64.5 26.8 29.6 64.5 64.5 1.0 1.9 1.0 129.7 93.7 0.00 0.0000000 68.4
2020-08-10 04:00:00 64.4 27.5 30.1 64.4 64.4 1.9 2.8 1.2 37.3 36.2 0.00 0.0000000 68.3
2020-08-10 04:05:00 64.4 27.7 30.3 64.4 64.4 1.7 1.7 1.0 45.1 101.9 0.00 0.0000000 68.3
2020-08-10 04:10:00 64.4 27.3 30.0 64.4 64.4 2.2 3.8 1.4 118.9 76.5 0.00 0.0000000 68.3
2020-08-10 04:15:00 64.4 27.4 30.1 64.4 64.4 2.4 2.6 1.6 135.5 71.4 0.00 0.0000000 68.2
2020-08-10 04:20:00 64.1 31.8 33.5 64.1 64.1 2.8 3.8 2.5 158.5 147.1 0.00 0.0000000 68.1
2020-08-10 04:25:00 61.6 33.8 32.9 61.6 61.6 3.5 4.4 3.6 168.6 172.3 0.00 0.0000000 68.1
2020-08-10 04:30:00 60.7 36.5 33.9 60.7 60.7 1.7 3.8 2.4 217.5 182.3 0.00 0.0000000 68.0
2020-08-10 04:35:00 60.1 34.4 31.9 60.1 60.1 2.4 3.7 2.6 138.8 166.9 0.00 0.0000000 68.0
2020-08-10 04:40:00 60.7 35.8 33.4 60.7 60.7 1.3 2.8 1.9 197.9 135.2 0.00 0.0000000 67.9
2020-08-10 04:45:00 59.0 42.8 36.4 59.0 59.0 0.0 2.4 1.1 2.7 250.3 0.00 0.0000000 67.9
2020-08-10 04:50:00 59.1 35.6 31.9 59.1 59.1 0.0 0.0 0.0 82.1 0.0 0.00 0.0000000 67.8
2020-08-10 04:55:00 59.9 32.9 30.6 59.9 59.9 1.7 2.1 1.3 51.2 58.0 0.00 0.0000000 67.8
2020-08-10 05:00:00 60.4 33.0 31.1 60.4 60.4 1.7 3.1 2.2 59.6 48.5 0.00 0.0000000 67.7
2020-08-10 05:05:00 60.6 29.1 28.3 60.6 60.6 1.7 1.9 1.4 69.7 70.2 0.00 0.0000000 67.6
2020-08-10 05:10:00 61.1 27.9 27.6 61.1 61.1 1.7 1.7 1.4 69.5 63.9 0.00 0.0000000 67.6
2020-08-10 05:15:00 61.5 27.9 28.0 61.5 61.5 1.7 2.2 1.8 29.9 57.0 0.00 0.0000000 67.5
2020-08-10 05:20:00 62.0 27.6 28.2 62.0 62.0 1.3 2.1 1.6 61.8 43.2 0.00 0.0000000 67.4
2020-08-10 05:25:00 62.5 27.1 28.1 62.5 62.5 1.5 1.9 0.9 66.3 60.1 0.00 0.0000000 67.4
2020-08-10 05:30:00 62.5 27.5 28.5 62.5 62.5 1.3 2.1 1.6 69.8 65.6 0.00 0.0000000 67.3
2020-08-10 05:35:00 62.6 26.7 27.9 62.6 62.6 1.5 1.9 1.6 43.1 51.1 0.00 0.0000000 67.2
2020-08-10 05:40:00 63.6 25.7 27.7 63.6 63.6 1.3 2.2 1.8 58.0 39.7 0.00 0.0000000 67.2
2020-08-10 05:45:00 63.8 25.3 27.6 63.8 63.8 1.5 1.7 1.2 74.7 71.4 0.00 0.0000000 67.1
2020-08-10 05:50:00 63.4 27.7 29.5 63.4 63.4 1.2 1.5 1.0 74.0 62.8 0.00 0.0000000 67.1
2020-08-10 05:55:00 63.1 29.6 30.8 63.1 63.1 1.3 2.1 1.2 344.8 44.1 0.00 0.0000000 67.0
2020-08-10 06:00:00 63.7 28.4 30.3 63.7 63.7 1.5 3.8 1.9 318.3 27.6 0.00 0.0000000 67.0
2020-08-10 06:05:00 63.6 29.0 30.7 63.6 63.6 1.3 2.8 1.4 68.3 31.5 0.00 0.0000000 66.9
2020-08-10 06:10:00 63.7 29.2 31.0 63.7 63.7 2.1 3.0 1.6 39.0 37.2 0.00 0.0000000 66.9
2020-08-10 06:15:00 63.9 28.0 30.1 63.9 63.9 1.9 2.8 1.8 12.0 20.7 0.00 0.0010000 66.8
2020-08-10 06:20:00 63.9 28.8 30.9 63.9 63.9 2.6 3.5 1.8 16.6 42.7 0.00 0.0020000 66.8
2020-08-10 06:25:00 64.0 29.8 31.8 64.0 64.0 2.1 3.1 2.0 32.9 44.6 0.00 0.0030000 66.8
2020-08-10 06:30:00 64.3 29.3 31.7 64.3 64.3 1.9 4.4 2.6 143.4 37.1 0.00 0.0050000 66.7
2020-08-10 06:35:00 64.2 30.3 32.4 64.2 64.2 3.3 4.2 2.6 82.8 33.8 0.00 0.0070000 66.7
2020-08-10 06:40:00 63.9 29.9 31.8 63.9 63.9 3.1 6.5 3.5 331.8 28.9 0.00 0.0100000 66.7
2020-08-10 06:45:00 63.7 29.4 31.2 63.7 63.7 4.2 5.6 4.0 15.1 25.7 0.00 0.0120000 66.6
2020-08-10 06:50:00 63.7 32.4 33.6 63.7 63.7 3.3 6.7 4.0 13.9 32.3 0.00 0.0140000 66.6
2020-08-10 06:55:00 63.4 31.0 32.2 63.4 63.4 4.0 7.2 4.3 86.4 26.5 0.00 0.0150000 66.6
2020-08-10 07:00:00 63.6 30.1 31.6 63.6 63.6 4.0 4.7 3.0 48.8 41.8 0.00 0.0170000 66.5
2020-08-10 07:05:00 64.0 30.2 32.1 64.0 64.0 2.6 5.1 3.1 122.1 100.5 0.00 0.0180000 66.5
2020-08-10 07:10:00 63.9 30.9 32.5 63.9 63.9 1.9 3.8 2.7 69.7 99.1 0.00 0.0190000 66.4
2020-08-10 07:15:00 64.3 31.3 33.2 64.3 64.3 2.2 4.0 2.6 328.0 43.5 0.00 0.0210000 66.4
2020-08-10 07:20:00 64.6 30.4 32.8 64.6 64.6 4.2 4.9 3.0 33.8 25.5 0.00 0.0260000 66.4
2020-08-10 07:25:00 64.8 31.9 34.2 64.8 64.8 2.1 4.9 3.2 28.2 9.9 0.00 0.0360000 66.3
2020-08-10 07:30:00 65.3 32.6 35.2 65.3 65.3 2.2 4.9 3.1 59.6 21.9 0.00 0.0480000 66.3
2020-08-10 07:35:00 65.9 31.5 34.8 65.9 65.9 3.7 6.0 3.5 54.8 21.9 0.00 0.1780000 66.3
2020-08-10 07:40:00 66.5 29.7 33.8 66.5 66.5 4.0 6.5 3.6 52.8 28.2 0.00 0.1940000 66.3
2020-08-10 07:45:00 66.8 30.4 34.6 66.8 66.8 2.2 5.8 3.7 332.7 38.9 0.00 0.2090000 66.3
2020-08-10 07:50:00 67.5 28.4 33.6 67.5 67.5 3.1 3.7 2.8 322.1 65.1 0.00 0.2250000 66.3
2020-08-10 07:55:00 69.0 26.7 33.3 69.0 69.0 3.3 6.2 3.0 15.9 34.0 0.00 0.2430000 66.3
2020-08-10 08:00:00 70.3 27.1 34.8 70.3 70.3 2.1 6.2 3.5 21.9 46.9 0.00 0.2600000 66.3
2020-08-10 08:05:00 70.6 25.9 34.0 70.6 70.6 2.2 6.0 3.5 8.2 55.1 0.00 0.2760000 66.2
2020-08-10 08:10:00 71.3 25.1 33.8 71.3 71.3 2.4 5.1 3.1 157.4 38.0 0.00 0.2910000 66.2
2020-08-10 08:15:00 71.8 25.0 34.1 71.8 71.8 3.7 5.5 3.0 37.0 57.5 0.00 0.3080000 66.2
2020-08-10 08:20:00 72.2 24.3 33.8 72.2 72.2 4.2 6.7 3.8 2.1 44.8 0.00 0.3270000 66.3
2020-08-10 08:25:00 72.8 24.7 34.6 72.8 72.8 3.7 5.5 3.1 219.1 67.4 0.00 0.3430000 66.3
2020-08-10 08:30:00 73.4 23.6 33.9 73.4 73.4 2.8 7.2 4.0 216.0 69.6 0.00 0.3590000 66.3
2020-08-10 08:35:00 73.5 25.2 35.7 73.5 73.5 1.9 4.9 3.3 29.4 73.6 0.00 0.3750000 66.4
2020-08-10 08:40:00 74.3 24.4 35.6 74.3 74.3 3.5 5.6 3.0 79.1 83.9 0.00 0.3900000 66.5
2020-08-10 08:45:00 74.5 24.0 35.3 74.5 74.5 3.0 7.6 3.8 10.8 55.9 0.00 0.4090000 66.5
2020-08-10 08:50:00 74.9 24.5 36.2 74.9 74.9 2.8 6.9 3.8 204.5 46.8 0.00 0.4260000 66.6
2020-08-10 08:55:00 74.9 23.1 34.7 74.9 74.9 3.5 5.5 3.5 16.7 79.6 0.00 0.4440000 66.7
2020-08-10 09:00:00 75.4 22.6 34.6 75.4 75.4 1.9 5.1 3.3 344.4 67.8 0.00 0.4580000 66.7
2020-08-10 09:05:00 76.1 22.9 35.5 76.1 76.1 3.3 5.1 2.9 51.1 84.2 0.00 0.4740000 66.8
2020-08-10 09:10:00 76.9 21.9 35.1 76.9 76.9 4.6 4.9 3.6 91.1 75.9 0.00 0.4900000 66.9
2020-08-10 09:15:00 77.7 20.9 34.6 77.7 77.7 4.6 5.1 3.1 46.7 116.4 0.00 0.5060000 67.0
2020-08-10 09:20:00 78.4 22.4 36.8 78.4 78.4 2.1 6.3 3.2 164.2 101.8 0.00 0.5210000 67.1
2020-08-10 09:25:00 79.2 20.3 35.1 79.2 79.2 2.6 5.3 3.3 116.2 90.0 0.00 0.5360000 67.2
2020-08-10 09:30:00 78.9 22.3 37.1 78.9 78.9 4.7 6.7 5.1 68.3 111.6 0.00 0.5520000 67.2
2020-08-10 09:35:00 79.3 20.4 35.2 79.3 79.3 3.5 7.1 4.2 126.3 106.7 0.00 0.5680000 67.3
2020-08-10 09:40:00 79.8 20.6 36.0 79.8 79.8 4.0 4.9 3.7 121.4 113.6 0.00 0.5820000 67.4
2020-08-10 09:45:00 79.6 19.2 34.0 79.6 79.6 4.2 8.1 5.1 112.6 119.6 0.00 0.5950000 67.5
2020-08-10 09:50:00 79.8 19.6 34.7 79.8 79.8 4.0 5.5 3.9 154.9 126.0 0.00 0.6100000 67.6
2020-08-10 09:55:00 80.8 18.5 33.9 80.8 80.8 5.5 6.0 3.6 148.4 119.5 0.00 0.6240000 67.7
2020-08-10 10:00:00 81.2 17.8 33.4 81.2 81.2 6.0 6.3 4.0 137.1 130.7 0.00 0.6370000 67.9
2020-08-10 10:05:00 80.8 17.2 32.3 80.8 80.8 5.5 6.5 4.7 132.2 138.5 0.00 0.6510000 68.0
2020-08-10 10:10:00 81.1 18.0 33.6 81.1 81.1 4.4 5.1 3.7 142.5 128.8 0.00 0.6700000 68.1
2020-08-10 10:15:00 81.6 21.3 38.3 81.6 81.6 1.9 6.2 3.3 202.1 89.6 0.00 0.6830000 68.3
2020-08-10 10:20:00 82.4 17.1 33.3 82.4 82.4 3.3 6.3 3.7 49.2 122.9 0.00 0.6990000 68.4
2020-08-10 10:25:00 82.5 17.7 34.3 82.5 82.5 4.4 5.8 3.6 155.6 129.7 0.00 0.7170000 68.6
2020-08-10 10:30:00 82.8 16.5 32.8 82.8 82.8 6.2 6.7 3.9 152.0 157.0 0.00 0.7430000 68.7
2020-08-10 10:35:00 82.9 20.2 38.0 82.9 82.9 1.3 7.1 4.0 198.3 151.8 0.00 0.7770000 68.9
2020-08-10 10:40:00 84.0 15.7 32.5 84.0 84.0 4.6 4.9 3.0 157.7 153.3 0.00 0.8030000 69.1
2020-08-10 10:45:00 84.6 15.8 33.1 84.6 84.6 2.6 4.7 2.8 163.5 149.4 0.00 0.8080000 69.3
2020-08-10 10:50:00 84.8 16.7 34.7 84.8 84.8 3.8 5.3 3.1 220.4 191.1 0.00 0.8190000 69.4
2020-08-10 10:55:00 84.8 25.2 45.3 84.8 84.8 2.4 4.0 2.6 255.6 255.7 0.00 0.8470000 69.6
2020-08-10 11:00:00 84.8 24.6 44.6 84.8 84.8 2.6 4.6 3.0 272.5 252.5 0.00 0.8910000 69.8
2020-08-10 11:05:00 85.2 14.7 31.8 85.2 85.2 5.3 6.2 4.0 194.3 231.3 0.00 0.9470000 70.0
2020-08-10 11:10:00 85.2 18.2 37.2 85.2 85.2 3.7 5.1 3.4 253.5 233.3 0.00 0.7880000 70.3
2020-08-10 11:15:00 85.4 16.1 34.3 85.4 85.4 2.1 5.6 2.9 235.5 264.7 0.00 0.8850000 70.4
2020-08-10 11:20:00 86.0 18.9 38.8 86.0 86.0 3.1 4.0 2.3 319.4 288.1 0.00 0.4940000 70.7
2020-08-10 11:25:00 85.3 24.3 44.7 85.3 85.3 3.3 8.1 3.9 240.6 253.8 0.00 0.6310000 70.9
2020-08-10 11:30:00 84.4 25.7 45.4 84.4 84.4 4.2 7.1 4.8 280.6 260.6 0.00 1.0560000 71.2
2020-08-10 11:35:00 85.1 20.8 40.6 85.1 85.1 7.1 8.8 4.1 225.3 268.4 0.00 0.8580000 71.4
2020-08-10 11:40:00 85.3 17.7 36.6 85.3 85.3 6.0 6.0 3.8 225.6 240.2 0.00 0.8220000 71.6
2020-08-10 11:45:00 84.8 24.5 44.5 84.8 84.8 3.1 6.7 5.0 244.6 250.8 0.00 0.9760000 71.9
2020-08-10 11:50:00 84.8 19.9 39.2 84.8 84.8 3.5 5.8 4.3 256.7 234.3 0.00 0.9140000 72.1
2020-08-10 11:55:00 85.1 21.4 41.3 85.1 85.1 3.7 5.8 4.0 197.0 238.7 0.00 0.9110000 72.3
2020-08-10 12:00:00 86.4 15.8 34.6 86.4 86.4 4.4 6.3 5.2 173.6 196.3 0.00 0.9000000 72.5
2020-08-10 12:05:00 86.2 16.4 35.4 86.2 86.2 6.0 6.3 4.0 281.8 248.5 0.00 0.9100000 72.7
2020-08-10 12:10:00 85.9 14.3 31.7 85.9 85.9 5.6 7.4 5.5 201.2 242.1 0.00 0.9160000 73.0
2020-08-10 12:15:00 86.6 12.7 29.3 86.6 86.6 3.3 7.2 3.9 230.1 226.1 0.00 0.9200000 73.2
2020-08-10 12:20:00 86.9 18.6 39.2 86.9 86.9 3.1 5.6 4.3 256.4 191.1 0.00 0.9250000 73.4
2020-08-10 12:25:00 86.8 14.4 32.6 86.8 86.8 6.0 6.0 3.5 254.7 284.5 0.00 0.9300000 73.6
2020-08-10 12:30:00 86.8 12.2 28.6 86.8 86.8 1.9 5.8 3.0 76.9 335.7 0.00 0.9110000 73.8
2020-08-10 12:35:00 87.5 12.8 30.3 87.5 87.5 2.2 4.9 2.9 246.7 247.2 0.00 0.9210000 74.0
2020-08-10 12:40:00 88.7 14.8 34.8 88.7 88.7 4.7 5.8 4.2 231.7 200.6 0.00 0.9300000 74.2
2020-08-10 12:45:00 87.5 18.4 39.4 87.5 87.5 6.5 8.1 5.7 261.9 243.2 0.00 0.9400000 74.4
2020-08-10 12:50:00 87.3 23.6 45.6 87.3 87.3 2.6 6.7 4.0 243.9 249.1 0.00 1.0260000 74.6
2020-08-10 12:55:00 88.5 18.3 40.0 88.5 88.5 1.3 3.1 2.0 6.7 322.0 0.00 1.0060000 74.8
2020-08-10 13:00:00 88.3 26.9 50.0 88.3 88.3 2.1 3.7 2.9 257.5 310.7 0.00 0.9570000 75.0
2020-08-10 13:05:00 87.5 19.5 40.8 87.5 87.5 5.1 5.5 3.8 258.7 264.8 0.00 0.9430000 75.2
2020-08-10 13:10:00 88.2 14.5 33.9 88.2 88.2 5.8 5.8 3.5 225.5 222.8 0.00 0.9360000 75.4
2020-08-10 13:15:00 89.0 19.5 42.0 89.0 89.0 2.8 10.6 6.3 204.8 199.9 0.00 0.9320000 75.6
2020-08-10 13:20:00 89.0 13.5 32.8 89.0 89.0 4.9 6.3 4.2 233.9 222.1 0.00 0.9330000 75.8
2020-08-10 13:25:00 88.1 14.8 34.3 88.1 88.1 7.1 8.8 5.7 266.8 267.9 0.00 0.9370000 76.0
2020-08-10 13:30:00 88.9 11.4 28.5 88.9 88.9 2.6 6.3 3.4 220.0 281.7 0.00 0.9560000 76.2
2020-08-10 13:35:00 88.2 10.7 26.3 88.2 88.2 4.6 8.0 4.5 321.2 293.1 0.00 0.9410000 76.3
2020-08-10 13:40:00 89.1 14.6 34.8 89.1 89.1 1.3 5.6 3.0 259.4 310.0 0.00 0.9460000 76.5

Data is courtesy of the NM Climate Center. DO NOT USE IN LEGAL PROCEEDINGS.